createdAt,value
2022-09-23T00:02:53.369Z,7.43
2022-09-23T00:07:58.037Z,8.38
2022-09-23T00:13:02.434Z,8.90
2022-09-23T00:18:08.776Z,9.27
2022-09-23T00:23:14.500Z,9.98
2022-09-23T00:28:18.749Z,10.77
2022-09-23T00:33:24.366Z,7.97
2022-09-23T00:38:28.191Z,10.18
2022-09-23T00:43:39.291Z,9.85
2022-09-23T00:48:45.841Z,8.20
2022-09-23T00:53:56.185Z,8.50
2022-09-23T00:59:02.847Z,10.35
2022-09-23T01:04:08.232Z,11.60
2022-09-23T01:09:11.741Z,9.65
2022-09-23T01:14:28.606Z,8.80
2022-09-23T01:20:00.012Z,8.52
2022-09-23T01:25:13.705Z,11.57
2022-09-23T01:30:31.853Z,9.38
2022-09-23T01:35:43.032Z,12.30
2022-09-23T01:40:52.101Z,7.82
2022-09-23T01:46:05.143Z,9.60
2022-09-23T01:51:27.740Z,10.30
2022-09-23T01:56:40.109Z,8.65
2022-09-23T02:02:02.173Z,10.65
2022-09-23T02:07:07.616Z,7.68
2022-09-23T02:12:29.367Z,7.63
2022-09-23T02:17:44.987Z,9.20
2022-09-23T02:22:54.297Z,8.48
2022-09-23T02:28:08.195Z,8.18
2022-09-23T02:33:21.929Z,3.55
2022-09-23T02:38:31.820Z,9.88
2022-09-23T02:43:46.460Z,8.85
2022-09-23T02:48:53.813Z,9.02
2022-09-23T02:53:59.190Z,7.82
2022-09-23T02:59:11.943Z,7.40
2022-09-23T03:04:23.578Z,7.78
2022-09-23T03:09:28.363Z,7.78
2022-09-23T03:14:44.675Z,7.32
2022-09-23T03:19:50.739Z,8.60
2022-09-23T03:25:05.175Z,8.35
2022-09-23T03:30:13.335Z,6.88
2022-09-23T03:35:25.171Z,9.15
2022-09-23T03:40:33.308Z,6.13
2022-09-23T03:45:44.768Z,10.75
2022-09-23T03:50:51.496Z,10.10
2022-09-23T03:55:54.914Z,4.13
2022-09-23T04:01:01.280Z,8.00
2022-09-23T04:06:07.908Z,6.10
2022-09-23T04:11:12.958Z,8.30
2022-09-23T04:16:23.450Z,5.43
2022-09-23T04:21:30.213Z,8.57
2022-09-23T04:26:33.985Z,8.07
2022-09-23T04:31:41.295Z,6.00
2022-09-23T04:36:45.904Z,8.23
2022-09-23T04:41:51.721Z,5.78
2022-09-23T04:46:58.508Z,5.38
2022-09-23T04:52:03.226Z,6.05
2022-09-23T04:57:07.885Z,7.53
2022-09-23T05:02:14.918Z,7.20
2022-09-23T05:07:20.341Z,7.45
2022-09-23T05:12:24.942Z,7.43
2022-09-23T05:22:38.874Z,6.38
2022-09-23T05:27:43.742Z,11.07
2022-09-23T05:32:50.073Z,8.23
2022-09-23T05:37:59.042Z,7.90
2022-09-23T05:43:07.733Z,6.68
2022-09-23T05:48:13.800Z,9.25
2022-09-23T05:53:21.212Z,9.40
2022-09-23T05:58:25.556Z,11.23
2022-09-23T06:03:31.276Z,6.00
2022-09-23T06:08:38.881Z,7.47
2022-09-23T06:13:43.413Z,7.60
2022-09-23T06:18:55.585Z,6.60
2022-09-23T06:24:02.922Z,7.18
2022-09-23T06:29:17.356Z,14.68
2022-09-23T06:34:25.012Z,8.40
2022-09-23T06:39:34.187Z,8.10
2022-09-23T06:44:40.658Z,7.93
2022-09-23T06:50:01.155Z,10.13
2022-09-23T06:55:09.225Z,7.28
2022-09-23T07:00:15.786Z,7.15
2022-09-23T07:05:22.355Z,8.38
2022-09-23T07:10:30.921Z,5.78
2022-09-23T07:15:44.312Z,10.52
2022-09-23T07:20:50.791Z,5.95
2022-09-23T07:26:08.997Z,5.97
2022-09-23T07:31:37.584Z,6.22
2022-09-23T07:36:43.251Z,3.58
2022-09-23T07:41:53.100Z,7.18
2022-09-23T07:47:00.550Z,7.82
2022-09-23T07:52:16.302Z,8.10
2022-09-23T07:57:21.271Z,8.50
2022-09-23T08:02:25.922Z,11.38
2022-09-23T08:07:32.072Z,6.82
2022-09-23T08:12:38.033Z,5.50
2022-09-23T08:17:41.505Z,5.53
2022-09-23T08:22:57.607Z,6.43
2022-09-23T08:28:06.867Z,5.25
2022-09-23T08:33:22.479Z,6.25
2022-09-23T08:38:28.154Z,5.95
2022-09-23T08:43:36.907Z,7.88
2022-09-23T08:48:44.867Z,5.22
2022-09-23T08:53:52.308Z,7.43
2022-09-23T08:59:09.961Z,6.97
2022-09-23T09:04:20.094Z,7.22
2022-09-23T09:09:29.800Z,5.05
2022-09-23T09:14:48.907Z,4.30
2022-09-23T09:20:07.204Z,3.50
2022-09-23T09:25:18.062Z,4.60
2022-09-23T09:30:26.160Z,3.22
2022-09-23T09:35:37.081Z,5.38
2022-09-23T09:40:47.091Z,4.13
2022-09-23T09:45:59.265Z,7.90
2022-09-23T09:51:21.439Z,4.82
2022-09-23T09:56:35.417Z,4.68
2022-09-23T10:01:41.581Z,5.30
2022-09-23T10:07:25.226Z,3.40
2022-09-23T10:12:49.864Z,3.58
2022-09-23T10:17:54.878Z,7.35
2022-09-23T10:23:16.263Z,3.80
2022-09-23T10:28:43.108Z,3.35
2022-09-23T10:33:50.776Z,6.68
2022-09-23T10:39:17.605Z,3.78
2022-09-23T10:44:49.560Z,6.93
2022-09-23T10:50:10.723Z,3.88
2022-09-23T10:55:32.534Z,5.20
2022-09-23T11:00:56.979Z,4.82
2022-09-23T11:06:17.712Z,4.10
2022-09-23T11:11:31.887Z,6.38
2022-09-23T11:16:43.423Z,3.47
2022-09-23T11:22:03.036Z,4.22
2022-09-23T11:27:19.475Z,3.03
2022-09-23T11:32:34.550Z,4.22
2022-09-23T11:37:45.265Z,3.22
2022-09-23T11:43:03.597Z,6.28
2022-09-23T11:48:13.193Z,2.83
2022-09-23T11:53:28.086Z,2.60
2022-09-23T11:58:35.963Z,3.92
2022-09-23T12:03:46.849Z,5.35
2022-09-23T12:14:04.991Z,5.43
2022-09-23T12:19:18.539Z,5.32
2022-09-23T12:24:39.724Z,5.57
2022-09-23T12:29:52.984Z,3.38
2022-09-23T12:34:59.233Z,6.20
2022-09-23T12:40:09.826Z,10.90
2022-09-23T12:45:36.245Z,4.28
2022-09-23T12:50:55.145Z,6.07
2022-09-23T12:56:03.343Z,6.63
2022-09-23T13:01:12.556Z,4.40
2022-09-23T13:06:36.134Z,5.60
2022-09-23T13:11:42.195Z,5.43
2022-09-23T13:16:49.683Z,6.20
2022-09-23T13:22:14.040Z,6.50
2022-09-23T13:27:30.450Z,6.22
2022-09-23T13:32:59.200Z,5.85
2022-09-23T13:38:12.812Z,4.93
2022-09-23T13:43:21.115Z,6.05
2022-09-23T13:48:36.427Z,6.65
2022-09-23T13:53:45.404Z,7.30
2022-09-23T13:58:51.068Z,7.20
2022-09-23T14:04:10.849Z,6.50
2022-09-23T14:09:16.941Z,16.65
2022-09-23T14:14:22.903Z,4.63
2022-09-23T14:19:36.557Z,11.73
2022-09-23T14:24:47.930Z,7.13
2022-09-23T14:30:14.470Z,7.07
2022-09-23T14:35:43.986Z,7.95
2022-09-23T14:40:53.037Z,6.90
2022-09-23T14:46:00.335Z,7.05
2022-09-23T14:51:17.163Z,5.95
2022-09-23T14:56:22.527Z,6.20
2022-09-23T15:01:28.770Z,5.38
2022-09-23T15:06:39.591Z,4.72
2022-09-23T15:11:56.358Z,6.43
2022-09-23T15:17:03.566Z,4.57
2022-09-23T15:22:12.824Z,6.93
2022-09-23T15:27:38.080Z,5.88
2022-09-23T15:33:03.045Z,6.05
2022-09-23T16:03:45.717Z,5.20
2022-09-23T16:08:54.340Z,5.70
2022-09-23T16:13:59.651Z,5.25
2022-09-23T16:19:10.581Z,7.07
2022-09-23T16:24:16.125Z,5.47
2022-09-23T16:29:21.922Z,9.40
2022-09-23T16:34:34.723Z,7.20
2022-09-23T16:39:41.082Z,7.33
2022-09-23T16:44:45.994Z,6.80
2022-09-23T16:56:29.588Z,6.05
2022-09-23T17:01:56.611Z,8.27
2022-09-23T17:07:44.738Z,10.25
2022-09-23T17:13:34.269Z,7.32
2022-09-23T17:19:22.722Z,7.53
2022-09-23T17:24:28.781Z,7.63
2022-09-23T17:29:42.881Z,8.50
2022-09-23T17:34:56.521Z,6.63
2022-09-23T17:40:06.578Z,16.80
2022-09-23T17:51:08.405Z,10.35
2022-09-23T17:56:24.612Z,11.43
2022-09-23T18:01:42.513Z,11.88
2022-09-23T18:11:57.062Z,8.23
2022-09-23T18:17:02.343Z,10.30
2022-09-23T18:22:05.920Z,11.57
2022-09-23T18:27:12.064Z,13.20
2022-09-23T18:32:17.283Z,10.35
2022-09-23T18:37:24.575Z,10.75
2022-09-23T18:42:31.328Z,9.07
2022-09-23T18:47:53.458Z,9.93
2022-09-23T18:53:03.892Z,9.68
2022-09-23T18:58:20.594Z,13.30
2022-09-23T19:03:27.157Z,12.25
2022-09-23T19:08:33.323Z,11.45
2022-09-23T19:13:40.972Z,16.45
2022-09-23T19:19:02.819Z,8.90
2022-09-23T19:24:14.484Z,13.73
2022-09-23T19:29:22.572Z,14.10
2022-09-23T19:34:34.074Z,17.30
2022-09-23T19:39:41.277Z,19.40
2022-09-23T19:44:55.001Z,73.82
2022-09-23T19:55:17.000Z,58.08
2022-09-23T20:00:24.031Z,28.05
2022-09-23T20:05:28.500Z,38.13
2022-09-23T20:10:34.904Z,36.58
2022-09-23T20:15:55.238Z,26.00
2022-09-23T20:21:00.412Z,13.50
2022-09-23T20:26:22.377Z,16.05
2022-09-23T20:31:37.600Z,17.73
2022-09-23T20:36:44.382Z,42.20
2022-09-23T20:41:53.683Z,15.25
2022-09-23T20:47:00.493Z,17.58
2022-09-23T20:52:07.368Z,14.90
2022-09-23T20:57:16.959Z,48.90
2022-09-23T21:02:23.128Z,27.67
2022-09-23T21:07:28.045Z,17.73
2022-09-23T21:12:36.220Z,14.73
2022-09-23T21:17:52.165Z,13.77
2022-09-23T21:22:57.634Z,12.95
2022-09-23T21:28:02.626Z,15.07
2022-09-23T21:33:09.320Z,12.32
2022-09-23T21:38:14.785Z,7.35
2022-09-23T21:43:20.802Z,9.98
2022-09-23T21:48:33.580Z,13.20
2022-09-23T21:53:49.854Z,13.35
2022-09-23T21:58:57.357Z,14.93
2022-09-23T22:04:08.746Z,13.23
2022-09-23T22:09:16.054Z,10.70
2022-09-23T22:14:22.891Z,12.85
2022-09-23T22:19:35.223Z,8.57
2022-09-23T22:24:43.629Z,15.10
2022-09-23T22:30:10.059Z,12.95
2022-09-23T22:35:24.903Z,11.00
2022-09-23T22:40:36.809Z,9.93
2022-09-23T22:45:40.968Z,10.52
2022-09-23T22:56:05.642Z,8.52
2022-09-23T23:01:13.327Z,13.18
2022-09-23T23:11:40.941Z,20.20
2022-09-23T23:16:46.442Z,14.27
2022-09-23T23:21:52.939Z,22.05
2022-09-23T23:26:57.483Z,13.85
2022-09-23T23:32:12.752Z,42.45
2022-09-23T23:37:21.961Z,43.10
2022-09-23T23:42:29.696Z,18.00
2022-09-23T23:47:37.046Z,28.55
2022-09-23T23:52:46.498Z,8.30
2022-09-23T23:58:01.362Z,8.77
